Skip Navigation LinksHome page > Weather > Current weather Skip Navigation Links

Current Weather

Indira Gandhi Intl Apt, New Delhi, India

For information only: do not use for flight planning or navigation.
Latest weather
Observation time Wednesday, May 4, 2016 4:30 PM IST
Local time Wednesday, May 4, 2016 5:12 PM IST
Flight conditions Instrument Meteorological Conditions
Winds
Wind direction West-Southwest (240°)
Wind speed 7 mph
Wind gusting to 34 mph
Visibility 2.2 mi.
Present weather dust, dust storm
Sky condition
Ceiling 3,500 ft. broken clouds
Cloud layer broken clouds 3,500 ft.
Cloud layer few clouds with cumulonimbus 4,000 ft.
Cloud layer overcast 10,000 ft.
Temperature 99°F
Dewpoint 45°F
Altimeter 29.65 in.Hg
Derived measurements
Relative humidity 16%
Heat index 99°F
Density altitude 3707 ft.
METAR VIDP 041100Z 24006KT 3500 DU BKN035 FEW040CB OVC100 37/07 Q1004 TEMPO 26020G30KT 1500 DS TSRA

Settings

Location code

InnerDrive.Weather 4.0.5722.1 Release CLR 4.0.30319.34209
Copyright ©2015 Inner Drive Technology. All rights reserved. Portions Copyright ©1986-2015 David Braverman.

Find weather

Site navigation


Skip Navigation Links

Place info

Page info

PayPal - The safer, easier way to pay online!

Return home.

Copyright ©2016 Inner Drive Technology. Purveyors of fine, hand-crafted computer software. Page printed 2016-05-04T11:42:44 UTC.